FLTA4: Red River, Fulton, AR

Data processed at Thu Mar 22 2018 23:22


All information presented herein is the property of the government of the United States of America and may be revised or deleted at any time without prior notice.
Dissemination of this information without the expressed written consent of the Public Affairs Office, Tulsa District U.S. Army Corps of Engineers is strictly prohibited.
These data are gathered electronically and, as presented, have not undergone any form of quality control. These data are not guaranteed to be valid or correct.
Go to home page.
Go to station list.

Upstream stations:


Previous Day
Next Day
Current Day
    
SHEF ID:       FLTA4     Red River nr Fulton
STATION TYPE:  

               PRECIP     STAGE  RIV-FLOW   VOLTAGE
                   in        ft       cfs      volt
              Ccp-Rev   Ccp-Rev   Ccp-Rev   Ccp-Rev
(US/Central)
03/20 00:00      0.00     11.91     47730     12.50
03/20 01:00      0.00     11.87     47519     12.50
03/20 02:00      0.00     11.88     47572     12.50
03/20 03:00      0.00     11.89     47624     12.50
03/20 04:00      0.00     11.88     47572     12.50
03/20 05:00      0.00     11.88     47572     12.50
03/20 06:00      0.00     11.89     47624     12.40
03/20 07:00      0.00     11.88     47572     12.40
03/20 08:00      0.00     11.87     47519     12.40
03/20 09:00      0.00     11.85     47413     12.70
03/20 10:00      0.00     11.84     47360     13.80
03/20 11:00      0.00     11.82     47254     13.60
03/20 12:00      0.00     11.77     46990     13.30
03/20 13:00      0.00     11.74     46832     13.30
03/20 14:00      0.00     11.76     46937     13.20
03/20 15:00      0.00     11.77     46990     13.00
03/20 16:00      0.00     11.73     46779     13.10
03/20 17:00      0.00     11.73     46779     12.90
03/20 18:00      0.00     11.70     46621     12.90
03/20 19:00      0.00     11.67     46463     12.90
03/20 20:00      0.00     11.66     46410     12.70
03/20 21:00      0.00     11.65     46357     12.60
03/20 22:00      0.00     11.63     46252     12.60
03/20 23:00      0.00     11.60     46094     12.60